sensor_id;sensor_type;location;lat;lon;timestamp;pressure;altitude;pressure_sealevel;temperature;humidity
35443;BME280;21561;55.654;37.592;2023-04-22T00:02:01;98647.25;;;9.52;43.53
35443;BME280;21561;55.654;37.592;2023-04-22T00:04:28;98632.53;;;9.54;40.35
35443;BME280;21561;55.654;37.592;2023-04-22T00:06:55;98645.63;;;9.48;41.38
35443;BME280;21561;55.654;37.592;2023-04-22T00:09:22;98632.72;;;9.45;40.34
35443;BME280;21561;55.654;37.592;2023-04-22T00:11:49;98618.94;;;9.43;39.62
35443;BME280;21561;55.654;37.592;2023-04-22T00:14:16;98607.66;;;9.45;39.71
35443;BME280;21561;55.654;37.592;2023-04-22T00:16:42;98612.03;;;9.43;39.73
35443;BME280;21561;55.654;37.592;2023-04-22T00:19:09;98610.38;;;9.41;39.76
35443;BME280;21561;55.654;37.592;2023-04-22T00:21:36;98593.09;;;9.40;39.23
35443;BME280;21561;55.654;37.592;2023-04-22T00:24:02;98609.63;;;9.32;39.54
35443;BME280;21561;55.654;37.592;2023-04-22T00:26:29;98602.84;;;9.27;38.86
35443;BME280;21561;55.654;37.592;2023-04-22T00:28:56;98603.81;;;9.21;39.81
35443;BME280;21561;55.654;37.592;2023-04-22T00:31:22;98616.81;;;9.18;40.02
35443;BME280;21561;55.654;37.592;2023-04-22T00:33:49;98611.69;;;9.15;38.97
35443;BME280;21561;55.654;37.592;2023-04-22T00:36:16;98609.09;;;9.15;39.34
35443;BME280;21561;55.654;37.592;2023-04-22T00:38:44;98619.53;;;9.10;39.63
35443;BME280;21561;55.654;37.592;2023-04-22T00:41:13;98615.34;;;9.05;39.57
35443;BME280;21561;55.654;37.592;2023-04-22T00:43:39;98623.19;;;8.98;39.94
35443;BME280;21561;55.654;37.592;2023-04-22T00:46:07;98623.28;;;8.92;39.82
35443;BME280;21561;55.654;37.592;2023-04-22T00:48:37;98618.16;;;8.89;39.66
35443;BME280;21561;55.654;37.592;2023-04-22T00:51:04;98613.88;;;8.88;39.18
35443;BME280;21561;55.654;37.592;2023-04-22T00:53:31;98608.63;;;8.91;38.90
35443;BME280;21561;55.654;37.592;2023-04-22T00:55:58;98609.38;;;9.00;39.47
35443;BME280;21561;55.654;37.592;2023-04-22T00:58:25;98616.16;;;9.07;39.88
35443;BME280;21561;55.654;37.592;2023-04-22T01:00:52;98623.94;;;9.05;39.44
35443;BME280;21561;55.654;37.592;2023-04-22T01:03:19;98619.69;;;9.03;38.90
35443;BME280;21561;55.654;37.592;2023-04-22T01:05:47;98617.16;;;8.98;40.49
35443;BME280;21561;55.654;37.592;2023-04-22T01:08:14;98630.06;;;9.00;41.44
35443;BME280;21561;55.654;37.592;2023-04-22T01:10:41;98634.41;;;8.99;40.17
35443;BME280;21561;55.654;37.592;2023-04-22T01:13:08;98624.84;;;9.03;39.07
35443;BME280;21561;55.654;37.592;2023-04-22T01:15:34;98631.63;;;9.10;40.12
35443;BME280;21561;55.654;37.592;2023-04-22T01:18:01;98706.75;;;9.05;45.60
35443;BME280;21561;55.654;37.592;2023-04-22T01:20:28;98696.34;;;9.10;43.99
35443;BME280;21561;55.654;37.592;2023-04-22T01:22:55;98677.34;;;9.08;41.32
35443;BME280;21561;55.654;37.592;2023-04-22T01:25:25;98673.88;;;9.10;41.45
35443;BME280;21561;55.654;37.592;2023-04-22T01:27:52;98693.63;;;9.16;41.92
35443;BME280;21561;55.654;37.592;2023-04-22T01:30:19;98716.09;;;9.14;44.73
35443;BME280;21561;55.654;37.592;2023-04-22T01:32:46;98705.78;;;9.11;41.98
35443;BME280;21561;55.654;37.592;2023-04-22T01:35:13;98705.78;;;9.11;42.18
35443;BME280;21561;55.654;37.592;2023-04-22T01:37:39;98719.63;;;9.10;44.71
35443;BME280;21561;55.654;37.592;2023-04-22T01:40:06;98762.03;;;9.00;45.70
35443;BME280;21561;55.654;37.592;2023-04-22T01:42:34;98762.09;;;8.95;44.01
35443;BME280;21561;55.654;37.592;2023-04-22T01:45:01;98789.00;;;8.83;46.81
35443;BME280;21561;55.654;37.592;2023-04-22T01:47:28;98785.59;;;8.81;44.71
35443;BME280;21561;55.654;37.592;2023-04-22T01:49:55;98799.44;;;8.77;45.49
35443;BME280;21561;55.654;37.592;2023-04-22T01:52:21;98783.94;;;8.74;45.10
35443;BME280;21561;55.654;37.592;2023-04-22T01:54:48;98796.94;;;8.71;45.28
35443;BME280;21561;55.654;37.592;2023-04-22T01:57:15;98790.94;;;8.69;46.12
35443;BME280;21561;55.654;37.592;2023-04-22T01:59:42;98821.97;;;8.69;47.77
35443;BME280;21561;55.654;37.592;2023-04-22T02:02:08;98823.78;;;8.60;47.28
35443;BME280;21561;55.654;37.592;2023-04-22T02:04:35;98832.41;;;8.59;46.88
35443;BME280;21561;55.654;37.592;2023-04-22T02:07:02;98823.81;;;8.56;47.01
35443;BME280;21561;55.654;37.592;2023-04-22T02:09:28;98839.38;;;8.54;46.80
35443;BME280;21561;55.654;37.592;2023-04-22T02:11:55;98822.13;;;8.56;45.36
35443;BME280;21561;55.654;37.592;2023-04-22T02:14:21;98862.72;;;8.47;49.46
35443;BME280;21561;55.654;37.592;2023-04-22T02:16:48;98858.44;;;8.47;47.38
35443;BME280;21561;55.654;37.592;2023-04-22T02:19:15;98851.53;;;8.46;46.17
35443;BME280;21561;55.654;37.592;2023-04-22T02:21:41;98867.97;;;8.42;47.99
35443;BME280;21561;55.654;37.592;2023-04-22T02:24:08;98885.25;;;8.32;50.23
35443;BME280;21561;55.654;37.592;2023-04-22T02:26:34;98883.50;;;8.36;49.33
35443;BME280;21561;55.654;37.592;2023-04-22T02:29:01;98878.31;;;8.36;49.38
35443;BME280;21561;55.654;37.592;2023-04-22T02:31:28;98874.88;;;8.35;47.23
35443;BME280;21561;55.654;37.592;2023-04-22T02:33:54;98874.03;;;8.35;47.70
35443;BME280;21561;55.654;37.592;2023-04-22T02:36:21;98885.22;;;8.35;48.45
35443;BME280;21561;55.654;37.592;2023-04-22T02:38:48;98891.31;;;8.30;49.48
35443;BME280;21561;55.654;37.592;2023-04-22T02:41:14;98908.56;;;8.28;49.01
35443;BME280;21561;55.654;37.592;2023-04-22T02:43:41;98900.81;;;8.28;47.85
35443;BME280;21561;55.654;37.592;2023-04-22T02:46:11;98895.59;;;8.31;47.25
35443;BME280;21561;55.654;37.592;2023-04-22T02:48:38;98883.53;;;8.33;47.29
35443;BME280;21561;55.654;37.592;2023-04-22T02:51:05;98900.75;;;8.34;47.18
35443;BME280;21561;55.654;37.592;2023-04-22T02:53:32;98917.09;;;8.36;48.10
35443;BME280;21561;55.654;37.592;2023-04-22T02:55:58;98899.78;;;8.47;46.82
35443;BME280;21561;55.654;37.592;2023-04-22T02:58:25;98894.53;;;8.53;46.24
35443;BME280;21561;55.654;37.592;2023-04-22T03:00:52;98891.03;;;8.57;46.53
35443;BME280;21561;55.654;37.592;2023-04-22T03:03:19;98889.34;;;8.56;46.32
35443;BME280;21561;55.654;37.592;2023-04-22T03:05:46;98877.28;;;8.55;45.93
35443;BME280;21561;55.654;37.592;2023-04-22T03:08:12;98884.19;;;8.56;45.55
35443;BME280;21561;55.654;37.592;2023-04-22T03:10:39;98880.69;;;8.60;46.32
35443;BME280;21561;55.654;37.592;2023-04-22T03:13:06;98893.44;;;8.76;46.68
35443;BME280;21561;55.654;37.592;2023-04-22T03:15:32;98900.28;;;8.78;46.51
35443;BME280;21561;55.654;37.592;2023-04-22T03:17:59;98894.25;;;8.81;46.39
35443;BME280;21561;55.654;37.592;2023-04-22T03:20:25;98893.44;;;8.76;46.00
35443;BME280;21561;55.654;37.592;2023-04-22T03:22:52;98904.63;;;8.78;46.15
35443;BME280;21561;55.654;37.592;2023-04-22T03:25:18;98904.56;;;8.83;46.41
35443;BME280;21561;55.654;37.592;2023-04-22T03:27:45;98897.59;;;8.86;46.09
35443;BME280;21561;55.654;37.592;2023-04-22T03:30:12;98914.88;;;8.84;46.56
35443;BME280;21561;55.654;37.592;2023-04-22T03:32:38;98910.59;;;8.85;46.25
35443;BME280;21561;55.654;37.592;2023-04-22T03:35:05;98918.31;;;8.86;47.86
35443;BME280;21561;55.654;37.592;2023-04-22T03:37:32;98910.59;;;8.85;46.37
35443;BME280;21561;55.654;37.592;2023-04-22T03:39:58;98912.28;;;8.86;45.70
35443;BME280;21561;55.654;37.592;2023-04-22T03:42:25;98910.50;;;8.91;45.54
35443;BME280;21561;55.654;37.592;2023-04-22T03:44:52;98909.50;;;9.03;45.76
35443;BME280;21561;55.654;37.592;2023-04-22T03:47:18;98917.06;;;9.16;45.58
35443;BME280;21561;55.654;37.592;2023-04-22T03:49:46;98911.84;;;9.21;45.11
35443;BME280;21561;55.654;37.592;2023-04-22T03:52:12;98902.34;;;9.20;44.69
35443;BME280;21561;55.654;37.592;2023-04-22T03:54:39;98904.09;;;9.21;45.14
35443;BME280;21561;55.654;37.592;2023-04-22T03:57:06;98917.84;;;9.23;45.15
35443;BME280;21561;55.654;37.592;2023-04-22T03:59:32;98910.91;;;9.25;44.87
35443;BME280;21561;55.654;37.592;2023-04-22T04:01:59;98913.53;;;9.24;45.23
35443;BME280;21561;55.654;37.592;2023-04-22T04:04:26;98904.06;;;9.24;44.91
35443;BME280;21561;55.654;37.592;2023-04-22T04:06:55;98909.13;;;9.30;44.80
35443;BME280;21561;55.654;37.592;2023-04-22T04:09:21;98898.66;;;9.36;44.86
35443;BME280;21561;55.654;37.592;2023-04-22T04:11:48;98899.44;;;9.43;44.29
35443;BME280;21561;55.654;37.592;2023-04-22T04:14:14;98902.78;;;9.51;44.66
35443;BME280;21561;55.654;37.592;2023-04-22T04:16:41;98910.53;;;9.53;44.61
35443;BME280;21561;55.654;37.592;2023-04-22T04:19:08;98909.66;;;9.54;44.17
35443;BME280;21561;55.654;37.592;2023-04-22T04:21:35;98907.84;;;9.61;44.17
35443;BME280;21561;55.654;37.592;2023-04-22T04:24:04;98917.22;;;9.68;44.24
35443;BME280;21561;55.654;37.592;2023-04-22T04:26:31;98918.03;;;9.71;44.55
35443;BME280;21561;55.654;37.592;2023-04-22T04:28:59;98911.94;;;9.74;44.26
35443;BME280;21561;55.654;37.592;2023-04-22T04:31:27;98907.56;;;9.78;44.16
35443;BME280;21561;55.654;37.592;2023-04-22T04:33:54;98907.47;;;9.84;44.06
35443;BME280;21561;55.654;37.592;2023-04-22T04:36:22;98912.56;;;9.90;44.14
35443;BME280;21561;55.654;37.592;2023-04-22T04:38:54;98915.09;;;9.93;44.16
35443;BME280;21561;55.654;37.592;2023-04-22T04:41:22;98907.25;;;9.98;43.58
35443;BME280;21561;55.654;37.592;2023-04-22T04:43:48;98911.50;;;10.03;44.07
35443;BME280;21561;55.654;37.592;2023-04-22T04:46:15;98904.47;;;10.08;43.51
35443;BME280;21561;55.654;37.592;2023-04-22T04:48:42;98919.88;;;10.18;44.18
35443;BME280;21561;55.654;37.592;2023-04-22T04:51:11;98919.81;;;10.21;43.89
35443;BME280;21561;55.654;37.592;2023-04-22T04:53:39;98914.63;;;10.21;43.55
35443;BME280;21561;55.654;37.592;2023-04-22T04:56:05;98914.59;;;10.24;43.41
35443;BME280;21561;55.654;37.592;2023-04-22T04:58:32;98921.28;;;10.37;44.05
35443;BME280;21561;55.654;37.592;2023-04-22T05:00:58;98916.97;;;10.38;43.55
35443;BME280;21561;55.654;37.592;2023-04-22T05:03:25;98919.53;;;10.39;43.54
35443;BME280;21561;55.654;37.592;2023-04-22T05:05:52;98913.38;;;10.45;43.36
35443;BME280;21561;55.654;37.592;2023-04-22T05:08:19;98921.97;;;10.48;43.51
35443;BME280;21561;55.654;37.592;2023-04-22T05:10:45;98917.56;;;10.54;43.27
35443;BME280;21561;55.654;37.592;2023-04-22T05:13:12;98917.44;;;10.60;43.32
35443;BME280;21561;55.654;37.592;2023-04-22T05:15:38;98932.13;;;10.61;44.03
35443;BME280;21561;55.654;37.592;2023-04-22T05:18:05;98921.59;;;10.68;43.28
35443;BME280;21561;55.654;37.592;2023-04-22T05:20:32;98917.19;;;10.72;42.98
35443;BME280;21561;55.654;37.592;2023-04-22T05:23:01;98918.06;;;10.71;42.90
35443;BME280;21561;55.654;37.592;2023-04-22T05:25:27;98914.69;;;10.67;42.92
35443;BME280;21561;55.654;37.592;2023-04-22T05:27:54;98916.41;;;10.67;43.04
35443;BME280;21561;55.654;37.592;2023-04-22T05:30:21;98909.47;;;10.69;42.84
35443;BME280;21561;55.654;37.592;2023-04-22T05:32:47;98919.63;;;10.80;42.77
35443;BME280;21561;55.654;37.592;2023-04-22T05:35:14;98909.84;;;10.93;42.44
35443;BME280;21561;55.654;37.592;2023-04-22T05:37:40;98906.34;;;10.97;42.41
35443;BME280;21561;55.654;37.592;2023-04-22T05:40:07;98904.56;;;10.99;42.30
35443;BME280;21561;55.654;37.592;2023-04-22T05:42:34;98898.41;;;11.03;42.21
35443;BME280;21561;55.654;37.592;2023-04-22T05:45:01;98897.44;;;11.07;42.17
35443;BME280;21561;55.654;37.592;2023-04-22T05:47:28;98902.59;;;11.10;41.92
35443;BME280;21561;55.654;37.592;2023-04-22T05:49:55;98899.94;;;11.13;41.92
35443;BME280;21561;55.654;37.592;2023-04-22T05:52:22;98893.78;;;11.17;41.81
35443;BME280;21561;55.654;37.592;2023-04-22T05:54:48;98891.84;;;11.27;41.73
35443;BME280;21561;55.654;37.592;2023-04-22T05:57:15;98884.75;;;11.34;41.22
35443;BME280;21561;55.654;37.592;2023-04-22T05:59:42;98882.09;;;11.37;41.24
35443;BME280;21561;55.654;37.592;2023-04-22T06:02:08;98878.56;;;11.39;41.34
35443;BME280;21561;55.654;37.592;2023-04-22T06:04:35;98872.31;;;11.48;41.08
35443;BME280;21561;55.654;37.592;2023-04-22T06:07:03;98878.19;;;11.56;41.01
35443;BME280;21561;55.654;37.592;2023-04-22T06:09:30;98877.16;;;11.63;40.89
35443;BME280;21561;55.654;37.592;2023-04-22T06:11:56;98865.91;;;11.63;40.64
35443;BME280;21561;55.654;37.592;2023-04-22T06:14:23;98861.50;;;11.67;40.57
35443;BME280;21561;55.654;37.592;2023-04-22T06:16:50;98857.16;;;11.67;40.43
35443;BME280;21561;55.654;37.592;2023-04-22T06:19:18;98859.63;;;11.72;40.48
35443;BME280;21561;55.654;37.592;2023-04-22T06:21:45;98863.06;;;11.74;40.39
35443;BME280;21561;55.654;37.592;2023-04-22T06:24:11;98858.66;;;11.76;40.33
35443;BME280;21561;55.654;37.592;2023-04-22T06:26:38;98857.75;;;11.77;40.34
35443;BME280;21561;55.654;37.592;2023-04-22T06:29:04;98855.06;;;11.81;40.36
35443;BME280;21561;55.654;37.592;2023-04-22T06:31:31;98855.00;;;11.84;40.13
35443;BME280;21561;55.654;37.592;2023-04-22T06:33:58;98849.69;;;11.88;40.00
35443;BME280;21561;55.654;37.592;2023-04-22T06:36:25;98854.00;;;11.90;40.18
35443;BME280;21561;55.654;37.592;2023-04-22T06:38:55;98834.84;;;11.94;39.93
35443;BME280;21561;55.654;37.592;2023-04-22T06:41:22;98837.38;;;11.97;39.88
35443;BME280;21561;55.654;37.592;2023-04-22T06:43:49;98834.59;;;12.03;39.80
35443;BME280;21561;55.654;37.592;2023-04-22T06:46:15;98827.53;;;12.09;39.69
35443;BME280;21561;55.654;37.592;2023-04-22T06:48:43;98830.88;;;12.14;39.55
35443;BME280;21561;55.654;37.592;2023-04-22T06:51:09;98828.19;;;12.17;39.42
35443;BME280;21561;55.654;37.592;2023-04-22T06:53:36;98823.63;;;12.25;39.46
35443;BME280;21561;55.654;37.592;2023-04-22T06:56:03;98816.47;;;12.33;39.30
35443;BME280;21561;55.654;37.592;2023-04-22T06:58:29;98814.41;;;12.45;39.34
35443;BME280;21561;55.654;37.592;2023-04-22T07:00:56;98808.78;;;12.60;39.25
35443;BME280;21561;55.654;37.592;2023-04-22T07:03:22;98797.84;;;12.78;38.62
35443;BME280;21561;55.654;37.592;2023-04-22T07:05:50;98781.84;;;12.91;38.42
35443;BME280;21561;55.654;37.592;2023-04-22T07:08:16;98788.81;;;12.90;38.47
35443;BME280;21561;55.654;37.592;2023-04-22T07:10:43;98781.75;;;12.94;38.46
35443;BME280;21561;55.654;37.592;2023-04-22T07:13:09;98762.44;;;13.01;37.75
35443;BME280;21561;55.654;37.592;2023-04-22T07:15:36;98761.56;;;13.01;37.64
35443;BME280;21561;55.654;37.592;2023-04-22T07:18:03;98755.81;;;12.91;37.00
35443;BME280;21561;55.654;37.592;2023-04-22T07:20:29;98748.94;;;12.88;37.08
35443;BME280;21561;55.654;37.592;2023-04-22T07:22:56;98745.97;;;12.72;37.40
35443;BME280;21561;55.654;37.592;2023-04-22T07:25:23;98743.97;;;12.80;37.41
35443;BME280;21561;55.654;37.592;2023-04-22T07:27:49;98755.97;;;12.85;37.38
35443;BME280;21561;55.654;37.592;2023-04-22T07:30:16;98736.00;;;12.87;36.19
35443;BME280;21561;55.654;37.592;2023-04-22T07:32:42;98724.31;;;12.70;36.55
35443;BME280;21561;55.654;37.592;2023-04-22T07:35:11;98731.38;;;12.67;36.87
35443;BME280;21561;55.654;37.592;2023-04-22T07:37:38;98730.22;;;12.75;36.89
35443;BME280;21561;55.654;37.592;2023-04-22T07:40:04;98730.56;;;12.93;36.90
35443;BME280;21561;55.654;37.592;2023-04-22T07:42:37;98734.09;;;13.18;36.53
35443;BME280;21561;55.654;37.592;2023-04-22T07:45:04;98705.22;;;13.26;35.86
35443;BME280;21561;55.654;37.592;2023-04-22T07:47:31;98694.72;;;13.28;36.10
35443;BME280;21561;55.654;37.592;2023-04-22T07:49:58;98702.41;;;13.32;35.74
35443;BME280;21561;55.654;37.592;2023-04-22T07:52:25;98715.22;;;13.39;36.26
35443;BME280;21561;55.654;37.592;2023-04-22T07:54:51;98707.19;;;13.46;35.62
35443;BME280;21561;55.654;37.592;2023-04-22T07:57:18;98703.88;;;13.41;35.39
35443;BME280;21561;55.654;37.592;2023-04-22T07:59:48;98698.66;;;13.41;35.44
35443;BME280;21561;55.654;37.592;2023-04-22T08:02:14;98695.34;;;13.36;35.82
35443;BME280;21561;55.654;37.592;2023-04-22T08:04:41;98689.13;;;13.40;35.67
35443;BME280;21561;55.654;37.592;2023-04-22T08:07:08;98696.63;;;13.49;35.47
35443;BME280;21561;55.654;37.592;2023-04-22T08:09:55;98686.00;;;13.55;35.38
35443;BME280;21561;55.654;37.592;2023-04-22T08:12:22;98681.63;;;13.56;35.44
35443;BME280;21561;55.654;37.592;2023-04-22T08:14:48;98679.63;;;13.64;34.93
35443;BME280;21561;55.654;37.592;2023-04-22T08:17:15;98680.03;;;13.77;35.24
35443;BME280;21561;55.654;37.592;2023-04-22T08:19:42;98683.91;;;13.90;35.24
35443;BME280;21561;55.654;37.592;2023-04-22T08:22:09;98679.78;;;14.08;35.05
35443;BME280;21561;55.654;37.592;2023-04-22T08:24:35;98668.31;;;14.36;34.30
35443;BME280;21561;55.654;37.592;2023-04-22T08:27:02;98645.03;;;14.30;34.04
35443;BME280;21561;55.654;37.592;2023-04-22T08:29:29;98641.59;;;14.29;33.98
35443;BME280;21561;55.654;37.592;2023-04-22T08:31:55;98622.78;;;14.21;33.50
35443;BME280;21561;55.654;37.592;2023-04-22T08:34:22;98630.84;;;13.91;34.00
35443;BME280;21561;55.654;37.592;2023-04-22T08:36:50;98630.06;;;13.66;34.59
35443;BME280;21561;55.654;37.592;2023-04-22T08:39:16;98648.34;;;13.39;35.12
35443;BME280;21561;55.654;37.592;2023-04-22T08:41:43;98658.13;;;13.32;35.17
35443;BME280;21561;55.654;37.592;2023-04-22T08:44:11;98659.06;;;13.30;35.38
35443;BME280;21561;55.654;37.592;2023-04-22T08:46:39;98659.63;;;13.40;35.03
35443;BME280;21561;55.654;37.592;2023-04-22T08:49:06;98660.63;;;13.35;34.91
35443;BME280;21561;55.654;37.592;2023-04-22T08:51:32;98651.28;;;13.28;34.81
35443;BME280;21561;55.654;37.592;2023-04-22T08:53:59;98657.28;;;13.32;34.90
35443;BME280;21561;55.654;37.592;2023-04-22T08:56:26;98650.03;;;13.40;34.90
35443;BME280;21561;55.654;37.592;2023-04-22T08:58:54;98646.13;;;13.53;34.66
35443;BME280;21561;55.654;37.592;2023-04-22T09:01:23;98645.69;;;13.66;34.52
35443;BME280;21561;55.654;37.592;2023-04-22T09:03:50;98640.97;;;13.75;34.28
35443;BME280;21561;55.654;37.592;2023-04-22T09:06:18;98645.81;;;13.86;34.67
35443;BME280;21561;55.654;37.592;2023-04-22T09:08:46;98641.66;;;14.04;34.52
35443;BME280;21561;55.654;37.592;2023-04-22T09:11:13;98638.31;;;14.24;34.52
35443;BME280;21561;55.654;37.592;2023-04-22T09:13:39;98634.69;;;14.50;34.55
35443;BME280;21561;55.654;37.592;2023-04-22T09:16:08;98621.00;;;14.67;33.32
35443;BME280;21561;55.654;37.592;2023-04-22T09:18:41;98601.81;;;14.68;33.16
35443;BME280;21561;55.654;37.592;2023-04-22T09:21:08;98582.38;;;14.76;32.68
35443;BME280;21561;55.654;37.592;2023-04-22T09:23:48;98592.56;;;14.82;33.39
35443;BME280;21561;55.654;37.592;2023-04-22T09:26:17;98553.38;;;14.82;31.27
35443;BME280;21561;55.654;37.592;2023-04-22T09:31:15;98531.91;;;14.53;31.82
35443;BME280;21561;55.654;37.592;2023-04-22T09:33:46;98536.72;;;14.42;32.43
35443;BME280;21561;55.654;37.592;2023-04-22T09:36:15;98548.78;;;14.44;32.77
35443;BME280;21561;55.654;37.592;2023-04-22T09:38:51;98556.03;;;14.60;32.91
35443;BME280;21561;55.654;37.592;2023-04-22T09:41:25;98562.94;;;14.83;32.70
35443;BME280;21561;55.654;37.592;2023-04-22T09:43:53;98537.84;;;14.99;31.27
35443;BME280;21561;55.654;37.592;2023-04-22T09:46:21;98531.19;;;14.92;32.04
35443;BME280;21561;55.654;37.592;2023-04-22T09:48:48;98527.03;;;14.88;32.33
35443;BME280;21561;55.654;37.592;2023-04-22T09:51:15;98535.59;;;14.92;32.34
35443;BME280;21561;55.654;37.592;2023-04-22T09:53:42;98527.28;;;15.02;32.24
35443;BME280;21561;55.654;37.592;2023-04-22T09:56:09;98517.56;;;15.06;31.92
35443;BME280;21561;55.654;37.592;2023-04-22T09:58:38;98511.34;;;15.08;32.30
35443;BME280;21561;55.654;37.592;2023-04-22T10:01:05;98499.75;;;15.14;30.84
35443;BME280;21561;55.654;37.592;2023-04-22T10:03:32;98481.03;;;15.04;30.60
35443;BME280;21561;55.654;37.592;2023-04-22T10:05:58;98451.13;;;14.91;30.52
35443;BME280;21561;55.654;37.592;2023-04-22T10:08:25;98464.88;;;14.76;30.75
35443;BME280;21561;55.654;37.592;2023-04-22T10:10:52;98456.66;;;14.64;30.59
35443;BME280;21561;55.654;37.592;2023-04-22T10:13:18;98471.94;;;14.74;31.27
35443;BME280;21561;55.654;37.592;2023-04-22T10:15:48;98459.56;;;14.98;30.88
35443;BME280;21561;55.654;37.592;2023-04-22T10:18:17;98463.88;;;15.76;29.51
35443;BME280;21561;55.654;37.592;2023-04-22T10:20:47;98416.53;;;16.70;29.31
35443;BME280;21561;55.654;37.592;2023-04-22T10:23:19;98409.09;;;16.95;29.26
35443;BME280;21561;55.654;37.592;2023-04-22T10:25:52;98414.66;;;17.70;29.36
35443;BME280;21561;55.654;37.592;2023-04-22T10:28:20;98387.56;;;18.61;28.97
35443;BME280;21561;55.654;37.592;2023-04-22T10:30:47;98400.22;;;18.99;29.21
35443;BME280;21561;55.654;37.592;2023-04-22T10:36:20;98320.03;;;18.20;26.53
35443;BME280;21561;55.654;37.592;2023-04-22T10:38:41;98332.44;;;17.08;28.17
35443;BME280;21561;55.654;37.592;2023-04-22T10:41:31;98358.72;;;16.39;29.73
35443;BME280;21561;55.654;37.592;2023-04-22T10:43:58;98367.44;;;16.05;30.05
35443;BME280;21561;55.654;37.592;2023-04-22T10:49:06;98374.75;;;15.62;29.94
35443;BME280;21561;55.654;37.592;2023-04-22T10:51:37;98393.66;;;15.67;29.93
35443;BME280;21561;55.654;37.592;2023-04-22T10:54:03;98378.41;;;15.77;29.68
35443;BME280;21561;55.654;37.592;2023-04-22T10:56:30;98364.66;;;16.26;27.78
35443;BME280;21561;55.654;37.592;2023-04-22T10:58:56;98321.88;;;16.76;26.58
35443;BME280;21561;55.654;37.592;2023-04-22T11:01:26;98314.06;;;17.71;27.21
35443;BME280;21561;55.654;37.592;2023-04-22T11:03:53;98237.41;;;18.54;24.29
35443;BME280;21561;55.654;37.592;2023-04-22T11:06:20;98265.22;;;19.54;26.34
35443;BME280;21561;55.654;37.592;2023-04-22T11:09:05;98264.25;;;20.72;25.56
35443;BME280;21561;55.654;37.592;2023-04-22T11:11:33;98206.53;;;21.17;25.69
35443;BME280;21561;55.654;37.592;2023-04-22T11:13:59;98204.94;;;21.39;25.34
35443;BME280;21561;55.654;37.592;2023-04-22T11:16:26;98102.47;;;21.22;23.89
35443;BME280;21561;55.654;37.592;2023-04-22T11:18:54;98112.28;;;20.47;24.66
35443;BME280;21561;55.654;37.592;2023-04-22T11:21:21;98138.25;;;20.40;24.69
35443;BME280;21561;55.654;37.592;2023-04-22T11:23:50;98101.56;;;20.00;24.69
35443;BME280;21561;55.654;37.592;2023-04-22T11:26:31;98106.94;;;19.48;24.59
35443;BME280;21561;55.654;37.592;2023-04-22T11:28:59;98095.19;;;18.73;24.60
35443;BME280;21561;55.654;37.592;2023-04-22T11:31:25;98121.81;;;17.84;26.08
35443;BME280;21561;55.654;37.592;2023-04-22T11:33:52;98136.63;;;17.99;25.50
35443;BME280;21561;55.654;37.592;2023-04-22T11:36:19;98122.31;;;18.32;25.19
35443;BME280;21561;55.654;37.592;2023-04-22T11:38:53;98117.81;;;18.48;24.73
35443;BME280;21561;55.654;37.592;2023-04-22T11:41:20;98110.88;;;19.02;24.40
35443;BME280;21561;55.654;37.592;2023-04-22T11:43:48;98101.25;;;19.15;24.84
35443;BME280;21561;55.654;37.592;2023-04-22T11:46:15;98112.94;;;19.88;24.57
35443;BME280;21561;55.654;37.592;2023-04-22T11:48:42;98087.22;;;20.78;23.84
35443;BME280;21561;55.654;37.592;2023-04-22T11:51:09;98050.06;;;21.75;22.72
35443;BME280;21561;55.654;37.592;2023-04-22T11:53:36;98012.75;;;22.35;22.12
35443;BME280;21561;55.654;37.592;2023-04-22T11:56:05;97929.09;;;22.87;20.84
35443;BME280;21561;55.654;37.592;2023-04-22T11:58:32;97937.31;;;22.30;22.56
35443;BME280;21561;55.654;37.592;2023-04-22T12:00:58;97941.06;;;21.84;22.40
35443;BME280;21561;55.654;37.592;2023-04-22T12:03:26;97889.56;;;21.12;21.83
35443;BME280;21561;55.654;37.592;2023-04-22T12:06:00;97944.56;;;20.59;23.27
35443;BME280;21561;55.654;37.592;2023-04-22T12:10:58;97958.38;;;21.43;22.89
35443;BME280;21561;55.654;37.592;2023-04-22T12:13:26;97915.91;;;21.24;20.40
35443;BME280;21561;55.654;37.592;2023-04-22T12:15:56;97874.63;;;20.08;21.65
35443;BME280;21561;55.654;37.592;2023-04-22T12:21:08;97878.16;;;21.12;21.18
35443;BME280;21561;55.654;37.592;2023-04-22T12:26:09;97841.41;;;22.82;20.66
35443;BME280;21561;55.654;37.592;2023-04-22T12:28:38;97835.91;;;23.35;20.97
35443;BME280;21561;55.654;37.592;2023-04-22T12:31:05;97841.16;;;24.25;20.95
35443;BME280;21561;55.654;37.592;2023-04-22T12:33:35;97790.19;;;25.15;19.31
35443;BME280;21561;55.654;37.592;2023-04-22T12:36:02;97760.22;;;25.51;19.58
35443;BME280;21561;55.654;37.592;2023-04-22T12:38:29;97672.72;;;25.13;17.56
35443;BME280;21561;55.654;37.592;2023-04-22T12:40:56;97660.22;;;24.32;19.27
35443;BME280;21561;55.654;37.592;2023-04-22T12:43:23;97711.59;;;24.49;19.88
35443;BME280;21561;55.654;37.592;2023-04-22T12:45:49;97645.22;;;24.96;18.40
35443;BME280;21561;55.654;37.592;2023-04-22T12:48:16;97689.16;;;24.81;20.01
35443;BME280;21561;55.654;37.592;2023-04-22T12:50:42;97690.22;;;24.88;19.93
35443;BME280;21561;55.654;37.592;2023-04-22T12:53:09;97687.28;;;24.64;19.63
35443;BME280;21561;55.654;37.592;2023-04-22T12:55:36;97687.72;;;24.22;19.75
35443;BME280;21561;55.654;37.592;2023-04-22T12:58:02;97677.47;;;24.46;19.79
35443;BME280;21561;55.654;37.592;2023-04-22T13:00:29;97686.84;;;25.32;19.21
35443;BME280;21561;55.654;37.592;2023-04-22T13:02:56;97649.16;;;26.17;18.67
35443;BME280;21561;55.654;37.592;2023-04-22T13:05:23;97638.84;;;26.14;18.97
35443;BME280;21561;55.654;37.592;2023-04-22T13:07:50;97624.91;;;25.67;18.68
35443;BME280;21561;55.654;37.592;2023-04-22T13:10:32;97633.72;;;25.68;19.12